Terminal Aerodrome Forecast
Issued by NWS

Home | Current Version | Previous Version | Text Only | Print | Product List | Glossary On
Versions: 1 2 3 4 5 6 7 8 9 10 11 12 13 14 15
000
FTUS46 KPDT 230500
TAFYKM
TAF
KYKM 230520Z 2306/2406 19010G20KT P6SM VCSH FEW050 OVC080
     FM231000 21008KT P6SM FEW050 BKN080
     FM232100 25010KT P6SM SCT080
     FM240200 27007KT P6SM SCT080=

USA.gov is the U.S. government's official web portal to all federal, state and local government web resources and services.